createdAt,value
2022-08-26T00:04:42.135Z,2.30
2022-08-26T00:09:47.317Z,2.20
2022-08-26T00:14:52.768Z,2.25
2022-08-26T00:19:56.351Z,2.40
2022-08-26T00:24:59.920Z,2.20
2022-08-26T00:30:09.165Z,2.40
2022-08-26T00:35:14.078Z,2.40
2022-08-26T00:40:22.150Z,2.17
2022-08-26T00:45:27.731Z,2.10
2022-08-26T00:50:34.853Z,2.30
2022-08-26T00:55:41.548Z,2.33
2022-08-26T01:00:47.831Z,2.15
2022-08-26T01:05:52.405Z,3.10
2022-08-26T01:11:00.897Z,2.20
2022-08-26T01:16:10.094Z,2.08
2022-08-26T01:21:22.221Z,1.90
2022-08-26T01:26:30.976Z,2.22
2022-08-26T01:31:41.162Z,1.98
2022-08-26T01:36:49.218Z,2.00
2022-08-26T01:41:58.432Z,2.30
2022-08-26T01:47:09.833Z,2.13
2022-08-26T01:52:16.518Z,2.10
2022-08-26T01:57:22.577Z,2.00
2022-08-26T02:02:27.714Z,2.20
2022-08-26T02:07:33.265Z,2.27
2022-08-26T02:12:39.069Z,2.08
2022-08-26T02:17:46.393Z,2.03
2022-08-26T02:22:51.255Z,1.98
2022-08-26T02:27:56.532Z,2.35
2022-08-26T02:33:00.487Z,1.90
2022-08-26T02:38:09.856Z,2.05
2022-08-26T02:43:16.397Z,2.00
2022-08-26T02:48:21.538Z,1.92
2022-08-26T02:58:30.899Z,2.22
2022-08-26T03:08:37.458Z,1.88
2022-08-26T03:13:42.963Z,1.75
2022-08-26T03:18:52.006Z,2.05
2022-08-26T03:23:58.629Z,1.90
2022-08-26T03:29:04.531Z,1.83
2022-08-26T03:34:08.145Z,1.77
2022-08-26T03:39:12.941Z,2.10
2022-08-26T03:44:18.136Z,1.83
2022-08-26T03:49:21.707Z,1.75
2022-08-26T03:54:25.350Z,1.70
2022-08-26T03:59:30.981Z,1.75
2022-08-26T04:04:35.218Z,1.98
2022-08-26T04:09:38.813Z,1.73
2022-08-26T04:14:45.035Z,1.67
2022-08-26T04:19:48.738Z,1.40
2022-08-26T04:24:52.325Z,1.58
2022-08-26T04:29:57.551Z,1.90
2022-08-26T04:35:01.809Z,1.70
2022-08-26T04:40:06.974Z,1.98
2022-08-26T04:45:13.407Z,1.67
2022-08-26T04:50:16.983Z,1.80
2022-08-26T04:55:21.930Z,1.70
2022-08-26T05:00:47.738Z,1.80
2022-08-26T05:05:51.815Z,1.40
2022-08-26T05:10:56.347Z,1.45
2022-08-26T05:16:04.282Z,1.53
2022-08-26T05:21:08.949Z,1.60
2022-08-26T05:26:12.566Z,1.90
2022-08-26T05:31:23.807Z,1.80
2022-08-26T05:36:28.902Z,1.98
2022-08-26T05:41:36.456Z,1.60
2022-08-26T05:46:43.980Z,1.63
2022-08-26T05:51:48.076Z,1.85
2022-08-26T05:56:52.048Z,1.90
2022-08-26T06:01:57.360Z,1.85
2022-08-26T06:07:01.993Z,1.73
2022-08-26T06:12:06.432Z,1.90
2022-08-26T06:17:11.661Z,2.30
2022-08-26T06:22:21.901Z,1.70
2022-08-26T06:27:32.061Z,1.70
2022-08-26T06:32:38.138Z,1.80
2022-08-26T06:37:41.767Z,1.55
2022-08-26T06:42:45.927Z,1.60
2022-08-26T06:47:51.218Z,1.55
2022-08-26T06:52:55.115Z,1.38
2022-08-26T06:58:00.362Z,1.50
2022-08-26T07:03:06.480Z,1.60
2022-08-26T07:08:11.438Z,1.70
2022-08-26T07:13:15.528Z,1.55
2022-08-26T07:18:20.778Z,1.60
2022-08-26T07:23:26.586Z,1.63
2022-08-26T07:28:30.928Z,1.90
2022-08-26T07:33:36.673Z,1.42
2022-08-26T07:43:44.255Z,1.60
2022-08-26T07:48:51.263Z,1.10
2022-08-26T07:53:55.626Z,1.23
2022-08-26T07:58:59.199Z,1.17
2022-08-26T08:04:05.264Z,1.10
2022-08-26T08:09:12.248Z,1.15
2022-08-26T08:14:15.911Z,1.30
2022-08-26T08:19:23.141Z,1.08
2022-08-26T08:24:27.525Z,1.67
2022-08-26T08:29:31.401Z,1.10
2022-08-26T08:34:38.063Z,1.40
2022-08-26T08:39:41.794Z,1.40
2022-08-26T08:44:52.001Z,1.55
2022-08-26T08:50:03.431Z,1.50
2022-08-26T08:55:10.395Z,1.40
2022-08-26T09:00:19.444Z,1.70
2022-08-26T09:05:27.712Z,1.63
2022-08-26T09:10:36.153Z,2.10
2022-08-26T09:15:51.452Z,2.00
2022-08-26T09:20:59.898Z,1.60
2022-08-26T09:26:13.965Z,1.90
2022-08-26T09:31:24.014Z,1.60
2022-08-26T09:36:41.026Z,2.20
2022-08-26T09:41:45.126Z,2.03
2022-08-26T09:46:56.134Z,2.00
2022-08-26T09:52:18.500Z,2.00
2022-08-26T09:57:27.191Z,1.83
2022-08-26T10:02:41.317Z,2.10
2022-08-26T10:07:53.339Z,1.90
2022-08-26T10:13:04.020Z,1.70
2022-08-26T10:18:15.624Z,2.08
2022-08-26T10:23:25.410Z,2.20
2022-08-26T10:28:36.180Z,2.30
2022-08-26T10:33:39.905Z,2.00
2022-08-26T10:38:45.318Z,2.28
2022-08-26T10:43:55.820Z,1.70
2022-08-26T10:49:03.184Z,1.55
2022-08-26T10:54:12.797Z,1.85
2022-08-26T10:59:24.866Z,1.75
2022-08-26T11:04:48.471Z,1.70
2022-08-26T11:09:54.092Z,1.50
2022-08-26T11:14:59.151Z,1.55
2022-08-26T11:20:07.464Z,1.20
2022-08-26T11:25:16.200Z,1.50
2022-08-26T11:30:44.218Z,2.03
2022-08-26T11:35:50.535Z,1.70
2022-08-26T11:41:09.485Z,1.23
2022-08-26T11:46:23.856Z,0.80
2022-08-26T11:51:29.067Z,0.50
2022-08-26T11:56:36.600Z,0.90
2022-08-26T12:01:44.164Z,1.10
2022-08-26T12:06:51.106Z,1.15
2022-08-26T12:12:12.433Z,1.10
2022-08-26T12:17:18.209Z,1.45
2022-08-26T12:22:29.124Z,1.30
2022-08-26T12:27:37.794Z,1.92
2022-08-26T12:32:56.626Z,1.90
2022-08-26T12:38:02.132Z,2.17
2022-08-26T12:43:08.856Z,1.60
2022-08-26T12:48:21.721Z,1.83
2022-08-26T12:53:31.151Z,1.88
2022-08-26T12:58:38.259Z,1.95
2022-08-26T13:03:44.895Z,1.95
2022-08-26T13:08:50.194Z,1.80
2022-08-26T13:13:58.236Z,1.90
2022-08-26T13:19:05.136Z,1.70
2022-08-26T13:24:10.691Z,1.83
2022-08-26T13:29:16.140Z,2.00
2022-08-26T13:34:21.787Z,1.60
2022-08-26T13:39:26.490Z,1.73
2022-08-26T13:44:31.763Z,1.95
2022-08-26T13:49:35.375Z,1.80
2022-08-26T13:54:39.038Z,1.92
2022-08-26T13:59:45.172Z,2.20
2022-08-26T14:04:48.750Z,2.00
2022-08-26T14:09:52.366Z,2.15
2022-08-26T14:14:57.580Z,2.00
2022-08-26T14:20:01.217Z,2.17
2022-08-26T14:25:05.216Z,2.28
2022-08-26T14:30:12.624Z,2.30
2022-08-26T14:35:19.194Z,2.20
2022-08-26T14:40:24.342Z,2.00
2022-08-26T14:45:30.029Z,1.97
2022-08-26T14:50:33.660Z,1.75
2022-08-26T14:55:39.639Z,2.03
2022-08-26T15:00:45.015Z,2.20
2022-08-26T15:05:48.624Z,2.22
2022-08-26T15:10:52.218Z,2.17
2022-08-26T15:15:57.513Z,2.00
2022-08-26T15:21:02.657Z,2.03
2022-08-26T15:26:08.703Z,1.80
2022-08-26T15:31:14.393Z,2.05
2022-08-26T15:36:17.986Z,2.20
2022-08-26T15:41:21.701Z,1.70
2022-08-26T15:46:27.248Z,1.95
2022-08-26T15:51:33.072Z,1.75
2022-08-26T15:56:38.373Z,1.80
2022-08-26T16:01:44.332Z,1.73
2022-08-26T16:11:51.402Z,1.52
2022-08-26T16:16:57.999Z,1.65
2022-08-26T16:22:01.606Z,1.67
2022-08-26T16:27:05.330Z,1.55
2022-08-26T16:32:10.637Z,1.60
2022-08-26T16:37:14.746Z,1.40
2022-08-26T16:42:18.363Z,1.35
2022-08-26T16:47:23.617Z,1.90
2022-08-26T16:52:30.149Z,1.33
2022-08-26T16:57:37.229Z,1.25
2022-08-26T17:02:42.576Z,1.35
2022-08-26T17:12:49.086Z,1.50
2022-08-26T17:17:54.781Z,1.40
2022-08-26T17:22:58.495Z,1.13
2022-08-26T17:28:02.113Z,1.00
2022-08-26T17:33:10.623Z,1.20
2022-08-26T17:38:14.683Z,1.10
2022-08-26T17:43:18.682Z,0.82
2022-08-26T17:48:23.907Z,1.00
2022-08-26T17:53:29.059Z,1.00
2022-08-26T17:58:32.683Z,1.10
2022-08-26T18:03:40.349Z,1.60
2022-08-26T18:08:44.079Z,1.40
2022-08-26T18:13:48.185Z,1.40
2022-08-26T18:18:53.713Z,1.33
2022-08-26T18:23:57.384Z,1.63
2022-08-26T18:29:01.159Z,1.67
2022-08-26T18:34:06.395Z,1.35
2022-08-26T18:39:10.663Z,1.50
2022-08-26T18:44:15.456Z,1.52
2022-08-26T18:54:24.428Z,1.60
2022-08-26T18:59:29.486Z,1.60
2022-08-26T19:04:36.704Z,1.35
2022-08-26T19:09:40.266Z,1.70
2022-08-26T19:14:45.353Z,1.42
2022-08-26T19:19:50.555Z,1.60
2022-08-26T19:24:54.113Z,1.40
2022-08-26T19:29:57.743Z,1.40
2022-08-26T19:35:02.992Z,1.55
2022-08-26T19:40:07.269Z,1.20
2022-08-26T19:45:24.853Z,1.38
2022-08-26T19:50:33.081Z,1.77
2022-08-26T19:55:36.692Z,2.30
2022-08-26T20:00:40.263Z,2.25
2022-08-26T20:05:46.491Z,2.60
2022-08-26T20:10:50.103Z,2.42
2022-08-26T20:15:54.379Z,2.50
2022-08-26T20:21:00.537Z,2.50
2022-08-26T20:26:04.375Z,2.33
2022-08-26T20:31:08.131Z,2.20
2022-08-26T20:36:16.030Z,2.60
2022-08-26T20:41:22.430Z,2.13
2022-08-26T20:46:26.380Z,1.98
2022-08-26T20:51:33.961Z,2.33
2022-08-26T20:56:37.738Z,2.67
2022-08-26T21:01:42.550Z,2.57
2022-08-26T21:06:52.814Z,3.00
2022-08-26T21:11:56.850Z,3.75
2022-08-26T21:17:00.433Z,4.50
2022-08-26T21:22:05.766Z,4.00
2022-08-26T21:27:09.358Z,5.00
2022-08-26T21:32:13.065Z,4.97
2022-08-26T21:37:21.037Z,5.28
2022-08-26T21:42:25.878Z,4.80
2022-08-26T21:47:29.808Z,4.47
2022-08-26T21:52:35.073Z,4.43
2022-08-26T21:57:38.676Z,3.92
2022-08-26T22:02:42.360Z,3.53
2022-08-26T22:07:47.731Z,4.40
2022-08-26T22:12:51.284Z,4.30
2022-08-26T22:17:54.869Z,3.97
2022-08-26T22:23:00.509Z,3.40
2022-08-26T22:28:04.874Z,3.60
2022-08-26T22:33:08.478Z,3.50
2022-08-26T22:38:14.462Z,3.13
2022-08-26T22:43:18.667Z,3.35
2022-08-26T22:53:29.015Z,3.67
2022-08-26T22:58:36.508Z,3.95
2022-08-26T23:03:40.794Z,3.80
2022-08-26T23:08:46.459Z,4.03
2022-08-26T23:13:50.050Z,3.90
2022-08-26T23:18:53.645Z,4.20
2022-08-26T23:23:58.875Z,3.80
2022-08-26T23:29:02.849Z,3.90
2022-08-26T23:34:06.599Z,3.67
2022-08-26T23:39:12.095Z,3.90
2022-08-26T23:44:15.673Z,3.65
2022-08-26T23:49:19.241Z,3.83
2022-08-26T23:54:24.479Z,3.63
2022-08-26T23:59:28.220Z,3.70
